Time;durP1;ratioP1;P1;durP2;ratioP2;P2;SDS_P1;SDS_P2;PMS_P1;PMS_P2;Temp;Humidity;BMP_temperature;BMP_pressure;BME280_temperature;BME280_humidity;BME280_pressure;Samples;Min_cycle;Max_cycle;Signal;HPM_P1;HPM_P2
2023/05/23 03:59:10;;;;;;;16.02;13.07;;;15.90;93.50;;;;;;5004880;28;20553;-91
2023/05/23 04:02:01;;;;;;;15.32;13.48;;;16.00;93.60;;;;;;4999532;28;20290;-91
2023/05/23 04:04:47;;;;;;;17.35;12.80;;;16.00;93.50;;;;;;5016289;28;20305;-91
2023/05/23 04:14:49;;;;;;;16.15;12.90;;;16.10;93.30;;;;;;5014735;28;20187;-91
2023/05/23 04:39:39;;;;;;;18.10;14.27;;;16.40;93.30;;;;;;4938199;29;20661;-94
2023/05/23 05:06:21;;;;;;;15.63;13.25;;;16.70;92.20;;;;;;4995441;28;20651;-93
2023/05/23 05:08:48;;;;;;;16.90;14.38;;;16.60;92.60;;;;;;4978651;28;20247;-93
2023/05/23 05:31:26;;;;;;;17.08;14.15;;;17.10;91.40;;;;;;5010195;23;20239;-93
2023/05/23 05:33:53;;;;;;;18.08;14.15;;;17.20;91.80;;;;;;4982319;28;20217;-92
2023/05/23 05:37:03;;;;;;;17.20;15.18;;;17.30;91.40;;;;;;4992671;28;20229;-93
2023/05/23 05:39:30;;;;;;;17.17;14.68;;;17.40;90.80;;;;;;5000840;28;20293;-94
2023/05/23 05:42:02;;;;;;;15.82;14.23;;;17.70;89.60;;;;;;4986612;28;20238;-94
2023/05/23 05:44:29;;;;;;;16.95;14.85;;;17.80;88.60;;;;;;4987259;28;20258;-92
2023/05/23 05:46:58;;;;;;;16.08;14.30;;;17.70;88.40;;;;;;5003858;28;20222;-93
2023/05/23 05:49:25;;;;;;;17.30;14.30;;;17.70;88.70;;;;;;5011396;28;20207;-93
2023/05/23 05:51:52;;;;;;;17.67;13.85;;;17.70;89.10;;;;;;4986668;28;20188;-93
2023/05/23 05:54:20;;;;;;;17.23;14.77;;;17.60;90.60;;;;;;5023941;28;20267;-94
2023/05/23 05:59:29;;;;;;;21.35;14.93;;;17.70;90.30;;;;;;4977446;28;20557;-94
2023/05/23 06:02:26;;;;;;;17.95;14.85;;;17.90;90.70;;;;;;5032587;28;20214;-91
2023/05/23 06:05:05;;;;;;;18.45;14.55;;;18.10;89.30;;;;;;5025592;28;20201;-94
2023/05/23 06:07:51;;;;;;;16.13;14.45;;;18.50;86.30;;;;;;5003502;28;20200;-94
2023/05/23 06:10:18;;;;;;;17.42;14.38;;;18.60;85.20;;;;;;5003190;28;20204;-93
2023/05/23 06:12:45;;;;;;;17.98;15.32;;;18.60;84.60;;;;;;4984577;28;20298;-91
2023/05/23 06:15:14;;;;;;;18.13;14.50;;;18.70;83.60;;;;;;5004166;28;20226;-93
2023/05/23 06:51:21;;;;;;;19.05;16.15;;;19.40;79.70;;;;;;5042804;28;20217;-95
2023/05/23 06:54:08;;;;;;;16.98;14.50;;;19.30;78.10;;;;;;5041457;28;20289;-95
2023/05/23 06:56:34;;;;;;;19.25;15.80;;;19.20;80.20;;;;;;5031644;28;20222;-94
2023/05/23 06:59:01;;;;;;;19.05;15.38;;;19.40;78.80;;;;;;5047329;28;20195;-95
2023/05/23 07:01:28;;;;;;;17.42;15.50;;;19.40;79.20;;;;;;5017376;28;20198;-95
2023/05/23 07:03:55;;;;;;;18.75;16.75;;;19.50;78.00;;;;;;5021151;28;20198;-94
2023/05/23 07:06:24;;;;;;;21.58;16.10;;;19.60;78.10;;;;;;5044928;28;20214;-94
2023/05/23 07:08:51;;;;;;;18.75;16.50;;;19.60;78.40;;;;;;5045247;28;20206;-93
2023/05/23 07:11:20;;;;;;;18.63;16.58;;;19.60;78.90;;;;;;5037139;28;20276;-95
2023/05/23 07:13:46;;;;;;;19.23;16.90;;;19.70;78.60;;;;;;5031796;28;20683;-95
2023/05/23 07:16:14;;;;;;;17.80;15.13;;;19.80;77.20;;;;;;5007465;28;20223;-95
2023/05/23 07:18:42;;;;;;;19.00;16.88;;;19.90;76.50;;;;;;5034330;28;20298;-94
2023/05/23 07:21:09;;;;;;;19.52;16.20;;;20.10;74.90;;;;;;5019229;28;20195;-91
2023/05/23 07:23:38;;;;;;;22.20;16.90;;;20.20;73.80;;;;;;5032382;28;20203;-90
2023/05/23 07:26:05;;;;;;;19.38;17.13;;;20.40;71.30;;;;;;5040109;28;20265;-91
2023/05/23 07:28:32;;;;;;;22.27;17.55;;;20.70;69.00;;;;;;5030984;28;20295;-92
2023/05/23 07:30:58;;;;;;;22.10;16.92;;;20.70;64.60;;;;;;5036456;28;20343;-92
2023/05/23 07:33:26;;;;;;;21.38;18.00;;;20.70;63.70;;;;;;5030506;28;20234;-92
2023/05/23 07:35:52;;;;;;;18.52;16.40;;;20.60;66.90;;;;;;5041698;28;20229;-93
2023/05/23 07:38:19;;;;;;;18.25;16.33;;;20.60;65.50;;;;;;5031458;28;20223;-93
2023/05/23 07:40:48;;;;;;;21.38;17.00;;;20.60;64.70;;;;;;5028035;28;20204;-90
2023/05/23 07:43:15;;;;;;;19.20;17.17;;;20.70;64.60;;;;;;5018776;28;20207;-90
2023/05/23 07:45:42;;;;;;;25.60;22.63;;;20.50;66.60;;;;;;5026257;28;20711;-90
2023/05/23 07:48:09;;;;;;;20.05;17.88;;;20.20;67.50;;;;;;5012501;28;20235;-93
2023/05/23 07:50:36;;;;;;;21.40;17.08;;;20.20;70.90;;;;;;5015839;28;20217;-93
2023/05/23 07:53:03;;;;;;;20.02;17.70;;;20.30;70.50;;;;;;5031827;28;20267;-92
2023/05/23 07:55:30;;;;;;;22.02;16.38;;;20.50;67.20;;;;;;5029660;28;20203;-89
2023/05/23 08:00:40;;;;;;;19.60;16.88;;;20.70;63.90;;;;;;5024695;28;20575;-93
2023/05/23 08:03:07;;;;;;;22.23;18.08;;;20.70;63.90;;;;;;5027669;28;20652;-93
2023/05/23 08:05:34;;;;;;;19.15;16.65;;;20.90;61.90;;;;;;5028577;28;20209;-93
2023/05/23 08:08:01;;;;;;;22.88;18.55;;;20.90;62.70;;;;;;4998889;28;20253;-94
2023/05/23 08:10:28;;;;;;;21.13;18.38;;;20.90;63.50;;;;;;5001352;28;20225;-93
2023/05/23 08:12:55;;;;;;;22.67;17.63;;;20.80;61.50;;;;;;4999378;28;20238;-93
2023/05/23 08:15:24;;;;;;;22.90;18.23;;;20.80;61.60;;;;;;5024886;28;20199;-90
2023/05/23 08:17:55;;;;;;;22.20;17.08;;;20.70;63.00;;;;;;5028131;28;20303;-92
2023/05/23 08:20:29;;;;;;;19.80;17.30;;;20.70;62.80;;;;;;5013436;28;20203;-93
2023/05/23 08:22:57;;;;;;;23.33;18.48;;;20.50;65.80;;;;;;5026992;28;20211;-93
2023/05/23 08:25:24;;;;;;;27.40;19.33;;;20.50;64.00;;;;;;5013164;28;20210;-93
2023/05/23 08:27:52;;;;;;;21.20;17.25;;;20.40;65.70;;;;;;5017726;28;20911;-91
2023/05/23 08:30:21;;;;;;;22.33;17.48;;;20.20;67.30;;;;;;5032034;28;20199;-93
2023/05/23 08:32:50;;;;;;;23.58;18.75;;;20.20;70.10;;;;;;5032547;28;20211;-93
2023/05/23 08:35:17;;;;;;;23.35;18.85;;;20.20;68.80;;;;;;5032892;28;20233;-90
2023/05/23 08:37:45;;;;;;;20.73;18.35;;;20.20;71.50;;;;;;5032743;28;20287;-92
2023/05/23 08:40:15;;;;;;;21.52;17.85;;;20.30;67.70;;;;;;5032618;28;20207;-93
2023/05/23 08:42:42;;;;;;;24.52;18.95;;;20.40;66.70;;;;;;5014007;28;20207;-92
2023/05/23 08:45:10;;;;;;;21.88;17.50;;;20.50;66.00;;;;;;5015062;28;20211;-90
2023/05/23 08:47:38;;;;;;;23.77;17.33;;;20.70;64.30;;;;;;5029460;28;20564;-93
2023/05/23 08:52:59;;;;;;;22.40;17.48;;;20.70;62.30;;;;;;5030118;28;20207;-92
2023/05/23 08:55:27;;;;;;;19.30;15.43;;;20.60;64.80;;;;;;5026798;28;20200;-93
2023/05/23 08:57:54;;;;;;;21.08;17.63;;;20.70;62.90;;;;;;5019780;28;20223;-92
2023/05/23 09:03:03;;;;;;;21.65;19.27;;;20.60;63.70;;;;;;5016700;28;20246;-93
2023/05/23 09:05:32;;;;;;;18.45;16.50;;;20.70;62.20;;;;;;5026006;28;20210;-93
2023/05/23 09:07:59;;;;;;;23.88;19.17;;;20.80;62.70;;;;;;5025002;28;20195;-93
2023/05/23 09:10:28;;;;;;;23.25;18.90;;;20.60;61.90;;;;;;5014420;28;20203;-93
2023/05/23 09:12:57;;;;;;;21.80;16.42;;;20.80;61.50;;;;;;5003971;28;20208;-93
2023/05/23 09:15:24;;;;;;;19.95;16.67;;;21.80;57.60;;;;;;4990011;28;20267;-90
2023/05/23 09:17:51;;;;;;;18.90;16.92;;;22.40;53.80;;;;;;5021161;28;20231;-89
2023/05/23 09:20:18;;;;;;;23.90;18.25;;;22.90;48.60;;;;;;5018381;28;20207;-93
2023/05/23 09:22:48;;;;;;;21.83;18.63;;;22.60;48.50;;;;;;5015820;28;20225;-93
2023/05/23 09:25:15;;;;;;;21.77;19.02;;;22.50;49.60;;;;;;5021748;28;20387;-93
2023/05/23 09:27:43;;;;;;;21.92;17.52;;;22.10;49.80;;;;;;5023752;28;20200;-91
2023/05/23 09:30:11;;;;;;;21.77;18.17;;;21.70;53.90;;;;;;5000117;28;20728;-93
2023/05/23 09:32:38;;;;;;;19.73;17.63;;;21.50;55.30;;;;;;5005035;28;20643;-93
2023/05/23 09:35:06;;;;;;;27.85;17.92;;;21.30;57.10;;;;;;5019721;28;20195;-94
2023/05/23 09:37:36;;;;;;;21.63;18.33;;;21.10;56.90;;;;;;5011783;28;20227;-93
2023/05/23 09:42:48;;;;;;;22.15;18.52;;;21.50;57.30;;;;;;5022024;28;20239;-93
2023/05/23 09:45:16;;;;;;;20.45;18.20;;;21.50;54.60;;;;;;5023677;28;20203;-93
2023/05/23 09:47:50;;;;;;;21.15;18.88;;;21.50;56.90;;;;;;4999822;28;20280;-92
2023/05/23 09:50:17;;;;;;;23.52;19.52;;;21.40;55.30;;;;;;5004272;28;20723;-90
2023/05/23 09:52:45;;;;;;;22.30;19.90;;;21.10;56.90;;;;;;5021473;28;20682;-91
2023/05/23 09:55:14;;;;;;;19.98;17.90;;;20.70;57.50;;;;;;4993039;28;20222;-93
2023/05/23 09:57:44;;;;;;;24.75;19.63;;;20.40;61.50;;;;;;5023632;28;20503;-92
2023/05/23 10:00:12;;;;;;;24.02;19.60;;;20.40;60.20;;;;;;5016292;28;20256;-90
2023/05/23 10:05:40;;;;;;;25.30;20.42;;;20.10;67.40;;;;;;5009738;28;20231;-91
2023/05/23 10:08:10;;;;;;;23.45;19.67;;;20.10;67.00;;;;;;5025509;28;20195;-93
2023/05/23 10:11:32;;;;;;;23.77;20.27;;;20.20;64.50;;;;;;5013460;28;20204;-92
2023/05/23 10:14:04;;;;;;;21.25;18.80;;;20.40;60.60;;;;;;5043395;28;20198;-92
2023/05/23 10:16:40;;;;;;;24.20;18.85;;;20.70;59.70;;;;;;4990361;28;20205;-92
2023/05/23 10:19:16;;;;;;;21.45;19.15;;;20.90;56.70;;;;;;5028794;28;20231;-93
2023/05/23 10:21:49;;;;;;;23.80;20.13;;;21.10;56.90;;;;;;5030391;28;20643;-93
2023/05/23 10:24:17;;;;;;;22.98;18.73;;;21.50;57.30;;;;;;5002230;28;20213;-92
2023/05/23 10:26:46;;;;;;;21.92;18.58;;;21.40;56.00;;;;;;5021254;28;20622;-92
2023/05/23 10:29:14;;;;;;;22.67;19.88;;;21.30;57.10;;;;;;5017081;28;20213;-92
2023/05/23 10:31:41;;;;;;;24.35;20.02;;;21.20;57.00;;;;;;5009881;28;20199;-93
2023/05/23 10:37:05;;;;;;;22.05;19.27;;;21.00;56.80;;;;;;5015606;28;20204;-93
2023/05/23 10:39:43;;;;;;;23.88;19.40;;;21.00;56.80;;;;;;5030474;28;20203;-92
2023/05/23 10:42:17;;;;;;;21.25;18.38;;;21.00;56.70;;;;;;5006203;28;20219;-95
2023/05/23 10:44:44;;;;;;;22.67;18.58;;;20.90;56.70;;;;;;5010065;28;20206;-92
2023/05/23 10:47:11;;;;;;;23.05;19.77;;;20.90;56.70;;;;;;4975364;28;20204;-92
2023/05/23 10:49:39;;;;;;;24.05;20.80;;;20.90;56.70;;;;;;5016398;28;20211;-93
2023/05/23 10:52:06;;;;;;;22.77;19.45;;;21.10;56.90;;;;;;5017508;28;20290;-90
2023/05/23 10:54:36;;;;;;;24.65;19.35;;;21.10;56.90;;;;;;5017584;28;20282;-91
2023/05/23 10:57:04;;;;;;;24.08;17.83;;;21.00;54.30;;;;;;5016134;28;20191;-91
2023/05/23 10:59:33;;;;;;;19.38;17.45;;;20.90;52.90;;;;;;5018398;28;20203;-94
2023/05/23 11:02:03;;;;;;;21.60;16.33;;;20.90;54.90;;;;;;5035192;28;20213;-91
2023/05/23 11:04:30;;;;;;;21.50;18.25;;;21.00;55.60;;;;;;5017792;28;20644;-89
2023/05/23 11:06:58;;;;;;;18.38;16.45;;;21.10;54.50;;;;;;5021289;28;20651;-91
2023/05/23 11:09:25;;;;;;;20.60;16.65;;;21.30;51.40;;;;;;4999381;28;20195;-92
2023/05/23 11:11:52;;;;;;;23.40;18.98;;;22.00;51.90;;;;;;5013906;28;20214;-92
2023/05/23 11:14:20;;;;;;;21.30;16.90;;;22.60;48.20;;;;;;5004668;28;20199;-93
2023/05/23 11:16:48;;;;;;;26.45;18.08;;;23.30;45.90;;;;;;5020850;28;20202;-93
2023/05/23 11:19:24;;;;;;;20.10;16.05;;;23.80;43.80;;;;;;5017169;28;20223;-92
2023/05/23 11:21:54;;;;;;;20.08;16.20;;;24.00;38.70;;;;;;5022994;28;20576;-91
2023/05/23 11:24:22;;;;;;;29.20;20.05;;;24.20;36.20;;;;;;5019485;28;20222;-93
2023/05/23 11:26:54;;;;;;;17.42;14.10;;;24.20;35.60;;;;;;5012297;28;20245;-92
2023/05/23 11:29:21;;;;;;;15.82;14.05;;;24.50;35.80;;;;;;5018522;28;20312;-92
2023/05/23 11:31:49;;;;;;;15.95;13.43;;;24.50;34.50;;;;;;5034000;28;20187;-91
2023/05/23 11:34:17;;;;;;;16.98;15.00;;;24.50;33.80;;;;;;5026324;28;20190;-91
2023/05/23 11:36:43;;;;;;;17.17;14.50;;;24.50;32.00;;;;;;5035311;28;20200;-91
2023/05/23 11:39:11;;;;;;;15.48;13.38;;;24.60;31.70;;;;;;5025479;28;20211;-92
2023/05/23 11:44:17;;;;;;;14.77;12.65;;;24.20;34.10;;;;;;5032659;28;20218;-88
2023/05/23 11:47:01;;;;;;;14.80;13.38;;;24.00;32.10;;;;;;5038740;28;20248;-90
2023/05/23 11:49:29;;;;;;;19.58;15.00;;;24.00;32.00;;;;;;5026339;28;20184;-90
2023/05/23 11:51:58;;;;;;;15.00;13.50;;;23.90;31.00;;;;;;5028009;28;20210;-91
2023/05/23 11:57:01;;;;;;;16.38;14.68;;;23.90;35.30;;;;;;6127351;23;20182;-91
2023/05/23 11:59:29;;;;;;;15.35;13.63;;;23.90;33.40;;;;;;5025068;28;20249;-91
2023/05/23 12:01:56;;;;;;;15.18;13.57;;;23.90;33.50;;;;;;5040260;28;20737;-92
2023/05/23 12:04:25;;;;;;;16.52;14.90;;;24.20;35.60;;;;;;5047664;28;20202;-90
2023/05/23 12:06:52;;;;;;;19.42;14.18;;;24.30;32.20;;;;;;5029477;28;20187;-91
2023/05/23 12:09:19;;;;;;;13.93;12.50;;;24.30;32.00;;;;;;5010730;28;20199;-92
2023/05/23 12:11:46;;;;;;;16.33;13.95;;;24.50;32.60;;;;;;5045876;28;20202;-92
2023/05/23 12:14:17;;;;;;;16.05;14.25;;;24.10;31.20;;;;;;5022292;28;20190;-93
2023/05/23 12:16:46;;;;;;;14.52;12.40;;;23.80;30.90;;;;;;5022274;28;20194;-89
2023/05/23 12:19:13;;;;;;;14.25;12.10;;;23.40;32.30;;;;;;5064876;23;20236;-92
2023/05/23 12:21:43;;;;;;;13.63;12.20;;;23.20;31.80;;;;;;5023956;28;20195;-90
2023/05/23 12:24:17;;;;;;;16.30;13.48;;;23.10;32.50;;;;;;5024852;28;20202;-89
2023/05/23 12:26:51;;;;;;;15.27;13.68;;;23.10;33.20;;;;;;5023936;28;20205;-91
2023/05/23 12:29:21;;;;;;;14.55;11.82;;;23.30;33.40;;;;;;5026309;28;20219;-90
2023/05/23 12:31:51;;;;;;;14.32;12.07;;;23.50;34.90;;;;;;5025821;28;20271;-89
2023/05/23 12:34:22;;;;;;;14.40;12.70;;;23.50;31.90;;;;;;5022136;28;20195;-89
2023/05/23 12:36:54;;;;;;;15.13;12.38;;;23.40;32.20;;;;;;5027296;28;20191;-89
2023/05/23 12:39:25;;;;;;;14.07;12.68;;;23.10;34.70;;;;;;5024956;28;20238;-89
2023/05/23 12:41:55;;;;;;;13.55;12.15;;;22.90;34.50;;;;;;5009160;28;20220;-88
2023/05/23 12:44:22;;;;;;;16.25;13.77;;;22.80;34.50;;;;;;5026359;28;20209;-91
2023/05/23 12:46:48;;;;;;;15.48;13.88;;;22.70;34.30;;;;;;5024064;28;20241;-89
2023/05/23 12:49:15;;;;;;;16.85;13.82;;;22.90;34.50;;;;;;5021360;28;20195;-89
2023/05/23 12:51:42;;;;;;;15.10;13.50;;;23.20;34.80;;;;;;5002790;28;20203;-91
2023/05/23 12:54:10;;;;;;;14.63;13.07;;;22.80;34.40;;;;;;5019273;28;20203;-91
2023/05/23 12:56:37;;;;;;;15.45;13.30;;;22.70;36.00;;;;;;5016663;28;20263;-90
2023/05/23 12:59:04;;;;;;;19.38;12.63;;;22.40;34.10;;;;;;5022263;28;20223;-92
2023/05/23 13:01:33;;;;;;;14.48;12.98;;;22.20;37.10;;;;;;5016300;28;20184;-92
2023/05/23 13:04:00;;;;;;;17.58;12.18;;;22.40;34.10;;;;;;5020574;28;20652;-90
2023/05/23 13:06:27;;;;;;;13.75;11.57;;;22.80;34.40;;;;;;5018703;28;20580;-88
2023/05/23 13:08:54;;;;;;;13.73;10.68;;;23.30;32.90;;;;;;4992740;28;20202;-92
2023/05/23 13:11:23;;;;;;;14.18;11.43;;;23.50;35.00;;;;;;5016721;28;20207;-90
2023/05/23 13:13:51;;;;;;;16.10;11.38;;;23.80;32.50;;;;;;5004414;28;20218;-90
2023/05/23 13:16:18;;;;;;;13.00;11.63;;;23.70;32.40;;;;;;5022891;28;20238;-90
2023/05/23 13:18:45;;;;;;;14.02;11.10;;;23.60;30.30;;;;;;5018328;28;20224;-90
2023/05/23 13:21:12;;;;;;;13.63;10.88;;;23.20;31.40;;;;;;4997846;28;20213;-92
2023/05/23 13:23:39;;;;;;;12.27;10.73;;;23.00;32.60;;;;;;5015253;28;20214;-88
2023/05/23 13:26:06;;;;;;;11.60;10.40;;;23.10;34.70;;;;;;5003023;28;20195;-90
2023/05/23 13:28:35;;;;;;;12.75;11.20;;;23.10;34.10;;;;;;5001781;28;20188;-91
2023/05/23 13:31:02;;;;;;;12.20;10.52;;;23.10;34.70;;;;;;5017518;28;20206;-90
2023/05/23 13:33:29;;;;;;;13.45;11.65;;;23.20;32.90;;;;;;5011351;28;20211;-91
2023/05/23 13:35:56;;;;;;;14.93;11.02;;;23.20;33.80;;;;;;4996021;28;20287;-90
2023/05/23 13:38:26;;;;;;;14.15;11.30;;;23.20;31.60;;;;;;5016241;28;20330;-90
2023/05/23 13:40:53;;;;;;;15.55;11.52;;;23.20;32.50;;;;;;5009656;28;20199;-90
2023/05/23 13:43:20;;;;;;;18.42;11.77;;;23.20;33.50;;;;;;5023107;28;20204;-89
2023/05/23 13:45:49;;;;;;;12.88;10.60;;;22.80;34.40;;;;;;5020470;28;20194;-90
2023/05/23 13:48:16;;;;;;;14.80;11.02;;;22.60;34.20;;;;;;5023785;28;20594;-92
2023/05/23 13:50:43;;;;;;;14.45;11.48;;;22.50;33.10;;;;;;4989941;28;20638;-91
2023/05/23 13:53:13;;;;;;;12.75;10.90;;;22.30;32.90;;;;;;5009309;28;20218;-90
2023/05/23 13:55:41;;;;;;;12.10;10.90;;;22.20;33.90;;;;;;4993195;28;20282;-90
2023/05/23 13:58:08;;;;;;;14.57;11.60;;;22.40;33.80;;;;;;5007245;28;20238;-91
2023/05/23 14:00:35;;;;;;;13.80;10.95;;;22.60;31.70;;;;;;4996639;28;20289;-91
2023/05/23 14:05:45;;;;;;;12.85;11.23;;;22.50;32.10;;;;;;5017412;28;20212;-92
2023/05/23 14:08:13;;;;;;;11.95;10.68;;;22.40;33.10;;;;;;4994046;28;20203;-92
2023/05/23 14:10:39;;;;;;;17.52;13.52;;;22.20;33.90;;;;;;5011803;28;20231;-92
2023/05/23 14:13:09;;;;;;;11.68;10.15;;;22.10;33.80;;;;;;5002414;28;20704;-91
2023/05/23 14:15:52;;;;;;;10.52;8.70;;;21.90;32.40;;;;;;5015738;28;20682;-89
2023/05/23 14:21:01;;;;;;;11.55;7.75;;;21.30;43.90;;;;;;5016359;28;20243;-90
2023/05/23 14:23:28;;;;;;;9.43;8.52;;;20.90;46.20;;;;;;5017275;28;20199;-90
2023/05/23 14:25:55;;;;;;;10.63;8.38;;;20.50;49.00;;;;;;4999614;28;20199;-91
2023/05/23 14:28:22;;;;;;;8.95;8.05;;;20.20;52.20;;;;;;5017791;28;20206;-90
2023/05/23 14:30:49;;;;;;;11.88;9.02;;;20.10;56.10;;;;;;5017320;28;20213;-89
2023/05/23 14:33:16;;;;;;;9.38;8.43;;;20.20;56.10;;;;;;5017921;28;20190;-92
2023/05/23 14:41:53;;;;;;;9.70;8.70;;;20.00;59.20;;;;;;5038255;28;20209;-91
2023/05/23 14:45:06;;;;;;;10.85;9.05;;;20.30;56.40;;;;;;5020470;28;20195;-89
2023/05/23 14:47:34;;;;;;;10.43;8.85;;;20.50;56.30;;;;;;5038327;28;20257;-91
2023/05/23 14:50:01;;;;;;;11.52;9.55;;;20.60;56.40;;;;;;5018198;28;20203;-94
2023/05/23 14:52:28;;;;;;;9.45;8.45;;;20.70;56.50;;;;;;5014576;28;20225;-92
2023/05/23 14:57:37;;;;;;;10.07;8.68;;;20.70;56.50;;;;;;4999040;28;20214;-91
2023/05/23 15:00:04;;;;;;;9.85;8.85;;;20.20;56.10;;;;;;5014354;28;20223;-91
2023/05/23 15:02:32;;;;;;;11.02;8.90;;;20.20;58.20;;;;;;5000204;28;20199;-90
2023/05/23 15:04:58;;;;;;;9.80;8.80;;;20.00;60.60;;;;;;5003388;28;20292;-91
2023/05/23 15:07:25;;;;;;;10.88;9.73;;;19.80;60.30;;;;;;5016467;28;20230;-93
2023/05/23 15:09:52;;;;;;;9.90;8.90;;;19.60;62.30;;;;;;5017642;28;20195;-91
2023/05/23 15:12:21;;;;;;;10.75;9.55;;;19.50;68.10;;;;;;5028382;28;20207;-91
2023/05/23 15:14:48;;;;;;;11.25;10.15;;;19.30;70.10;;;;;;4986120;28;20567;-92
2023/05/23 15:17:18;;;;;;;11.55;9.35;;;19.40;70.70;;;;;;4992752;28;20608;-89
2023/05/23 15:19:46;;;;;;;11.23;9.80;;;19.40;69.40;;;;;;4988441;28;20647;-92
2023/05/23 15:22:13;;;;;;;10.45;9.35;;;19.50;70.90;;;;;;5000371;28;20195;-92
2023/05/23 15:24:40;;;;;;;10.02;8.68;;;19.60;68.20;;;;;;5000770;28;20595;-91
2023/05/23 15:30:09;;;;;;;14.55;9.50;;;19.60;69.10;;;;;;5028334;28;20281;-92
2023/05/23 15:32:36;;;;;;;10.68;9.45;;;19.60;60.00;;;;;;4997870;28;20275;-92
2023/05/23 15:35:03;;;;;;;13.38;10.18;;;19.70;55.60;;;;;;5009488;28;20547;-91
2023/05/23 15:37:30;;;;;;;11.10;9.40;;;19.70;52.30;;;;;;5017253;28;20206;-91
2023/05/23 15:39:56;;;;;;;13.25;9.65;;;19.80;55.70;;;;;;5016391;28;20241;-91
2023/05/23 15:42:27;;;;;;;12.50;9.88;;;19.80;55.50;;;;;;5016983;28;20203;-89
2023/05/23 15:55:33;;;;;;;11.25;10.00;;;20.00;43.30;;;;;;5017732;28;20662;-91
2023/05/23 16:01:50;;;;;;;11.10;9.95;;;20.10;40.90;;;;;;5016658;28;20225;-93
2023/05/23 16:07:39;;;;;;;10.85;9.25;;;20.00;39.50;;;;;;5036303;28;20182;-91
2023/05/23 16:10:29;;;;;;;12.57;9.18;;;20.00;39.30;;;;;;5019226;28;20566;-91
2023/05/23 16:12:56;;;;;;;11.05;9.75;;;19.90;39.00;;;;;;4999376;28;20191;-91
2023/05/23 16:15:23;;;;;;;14.02;8.38;;;19.90;36.40;;;;;;5016058;28;20221;-90
2023/05/23 16:18:15;;;;;;;11.55;10.35;;;19.90;36.60;;;;;;5016408;23;21012;-90
2023/05/23 16:20:42;;;;;;;10.40;8.52;;;19.90;36.60;;;;;;4978744;28;20215;-89
2023/05/23 16:23:10;;;;;;;10.40;9.38;;;20.00;36.50;;;;;;4989005;28;20204;-91
2023/05/23 16:25:36;;;;;;;8.85;7.63;;;20.10;36.40;;;;;;4959555;28;20196;-92
2023/05/23 16:28:03;;;;;;;10.70;7.70;;;20.10;34.10;;;;;;4987576;28;20192;-92
2023/05/23 16:30:32;;;;;;;8.95;8.07;;;20.00;35.30;;;;;;4992270;28;20210;-92
2023/05/23 16:32:59;;;;;;;9.70;8.10;;;20.00;35.70;;;;;;4969610;28;20206;-90
2023/05/23 16:35:28;;;;;;;9.68;8.00;;;20.10;35.00;;;;;;4980960;28;20737;-92
2023/05/23 16:37:55;;;;;;;9.50;7.78;;;20.30;33.40;;;;;;4995952;28;20204;-93
2023/05/23 16:40:29;;;;;;;9.23;7.57;;;20.50;32.50;;;;;;4991148;28;20231;-91
2023/05/23 16:42:56;;;;;;;8.35;7.43;;;20.50;32.90;;;;;;4973233;28;20227;-92
2023/05/23 16:45:23;;;;;;;9.68;7.28;;;20.50;33.30;;;;;;4974987;28;20291;-93
2023/05/23 16:47:50;;;;;;;11.70;7.82;;;20.40;33.80;;;;;;4977117;28;20207;-90
2023/05/23 16:50:18;;;;;;;10.45;7.13;;;20.40;32.40;;;;;;4968230;28;20278;-92
2023/05/23 16:52:47;;;;;;;9.05;7.10;;;20.20;33.80;;;;;;4971585;28;20207;-92
2023/05/23 16:58:15;;;;;;;6.80;6.07;;;20.10;35.20;;;;;;4979293;28;20239;-91
2023/05/23 17:03:23;;;;;;;8.43;5.80;;;20.10;34.80;;;;;;4988905;28;20204;-91
2023/05/23 17:05:50;;;;;;;7.18;5.07;;;20.00;34.90;;;;;;4990453;28;20192;-92
2023/05/23 17:08:19;;;;;;;7.47;5.80;;;19.90;34.70;;;;;;4980928;28;20196;-90
2023/05/23 17:10:46;;;;;;;10.55;5.25;;;19.90;35.80;;;;;;4987934;28;20196;-91
2023/05/23 17:13:13;;;;;;;6.90;5.40;;;19.80;36.70;;;;;;4948584;28;20205;-89
2023/05/23 17:15:40;;;;;;;6.90;4.35;;;19.70;36.30;;;;;;4992293;28;20223;-92
2023/05/23 17:18:08;;;;;;;10.77;4.75;;;19.60;36.80;;;;;;4956456;28;20236;-90
2023/05/23 17:20:40;;;;;;;5.50;4.97;;;19.60;36.70;;;;;;4957517;28;20225;-92
2023/05/23 17:23:09;;;;;;;8.50;4.45;;;19.50;37.80;;;;;;4967373;28;20209;-89
2023/05/23 17:28:19;;;;;;;6.60;4.30;;;19.20;37.40;;;;;;4966490;28;20208;-90
2023/05/23 17:30:46;;;;;;;7.47;3.90;;;19.10;37.40;;;;;;4956152;28;20287;-91
2023/05/23 17:33:13;;;;;;;5.70;4.30;;;18.90;39.00;;;;;;4949412;28;20888;-90
2023/05/23 17:35:40;;;;;;;7.38;3.75;;;18.80;39.30;;;;;;4967113;28;20201;-93
2023/05/23 17:38:10;;;;;;;6.35;4.03;;;18.70;40.20;;;;;;4983423;28;20331;-90
2023/05/23 17:40:40;;;;;;;5.30;3.90;;;18.70;39.40;;;;;;4957513;28;20230;-88
2023/05/23 17:43:07;;;;;;;4.85;3.97;;;18.60;39.40;;;;;;4971674;28;20228;-89
2023/05/23 17:45:34;;;;;;;5.28;3.80;;;18.60;39.60;;;;;;4970353;28;20212;-88
2023/05/23 17:50:43;;;;;;;4.70;3.40;;;18.50;38.30;;;;;;4968413;28;20199;-92
2023/05/23 17:58:57;;;;;;;3.70;3.40;;;18.40;38.50;;;;;;4973593;28;20208;-91
2023/05/23 18:01:24;;;;;;;3.40;3.10;;;18.40;38.00;;;;;;4962129;28;20196;-88
2023/05/23 18:03:53;;;;;;;4.10;3.75;;;18.30;37.70;;;;;;4975230;28;20195;-88
2023/05/23 18:06:20;;;;;;;4.60;3.38;;;18.20;37.90;;;;;;4953241;28;20227;-89
2023/05/23 18:08:48;;;;;;;5.70;3.28;;;18.10;37.30;;;;;;4946131;28;20197;-90
2023/05/23 18:14:00;;;;;;;3.40;3.05;;;18.10;37.00;;;;;;4966587;28;20279;-87
2023/05/23 18:16:27;;;;;;;3.22;2.67;;;18.10;36.70;;;;;;4935492;28;20204;-87
2023/05/23 18:18:56;;;;;;;3.92;3.15;;;18.00;37.00;;;;;;4964989;28;20328;-88
2023/05/23 18:21:23;;;;;;;3.53;3.22;;;18.10;37.50;;;;;;4950029;28;20319;-89
2023/05/23 18:23:50;;;;;;;3.58;3.10;;;18.20;36.40;;;;;;4972815;28;20203;-89
2023/05/23 18:29:00;;;;;;;6.22;3.33;;;18.00;38.10;;;;;;4947591;28;20193;-88
2023/05/23 18:31:27;;;;;;;3.55;3.08;;;18.10;36.80;;;;;;4966448;28;20205;-89
2023/05/23 18:33:54;;;;;;;3.20;2.90;;;18.00;36.70;;;;;;4948274;28;20590;-88
2023/05/23 18:36:21;;;;;;;4.13;3.13;;;18.00;37.40;;;;;;4952613;28;20205;-87
2023/05/23 18:38:48;;;;;;;3.60;3.30;;;17.90;37.50;;;;;;4972204;28;20244;-88
2023/05/23 18:41:15;;;;;;;4.07;3.20;;;18.00;37.90;;;;;;4957306;28;21564;-89
2023/05/23 18:43:44;;;;;;;4.75;3.30;;;18.00;37.10;;;;;;4966307;28;20193;-88
2023/05/23 18:46:11;;;;;;;3.42;2.92;;;17.90;37.50;;;;;;4977365;28;20252;-86
2023/05/23 18:48:39;;;;;;;4.63;3.28;;;17.80;37.00;;;;;;4972142;28;20284;-86
2023/05/23 18:51:07;;;;;;;3.22;2.95;;;17.90;37.70;;;;;;4972101;28;20669;-88
2023/05/23 18:53:34;;;;;;;2.80;2.60;;;17.80;37.20;;;;;;4970560;28;20201;-88
2023/05/23 18:56:01;;;;;;;2.92;2.72;;;17.80;37.40;;;;;;4974245;28;20204;-89
2023/05/23 18:58:28;;;;;;;3.08;2.78;;;17.70;37.70;;;;;;4973518;28;20212;-86
2023/05/23 19:03:37;;;;;;;5.22;3.10;;;17.70;38.80;;;;;;4974415;28;20201;-88
2023/05/23 19:06:05;;;;;;;4.93;3.10;;;17.70;38.70;;;;;;4956525;28;20209;-88
2023/05/23 19:08:33;;;;;;;3.40;3.03;;;17.50;40.00;;;;;;4937791;28;20228;-87
2023/05/23 19:11:01;;;;;;;5.63;3.38;;;17.40;40.60;;;;;;4975494;28;20675;-89
2023/05/23 19:13:28;;;;;;;5.32;4.05;;;17.30;41.00;;;;;;4975184;28;20200;-89
2023/05/23 19:18:38;;;;;;;4.63;3.40;;;17.20;41.70;;;;;;4973989;28;20277;-87
2023/05/23 19:21:06;;;;;;;4.05;3.58;;;17.20;42.80;;;;;;4961312;28;20224;-87
2023/05/23 19:23:33;;;;;;;8.00;3.17;;;17.20;43.20;;;;;;4958240;28;20212;-89
2023/05/23 19:26:00;;;;;;;3.20;2.90;;;17.10;43.80;;;;;;4939959;28;20312;-87
2023/05/23 19:28:27;;;;;;;3.50;3.13;;;17.10;43.20;;;;;;4971803;28;20209;-87
2023/05/23 19:30:56;;;;;;;4.40;2.90;;;17.10;44.10;;;;;;4970260;28;20485;-88
2023/05/23 19:33:23;;;;;;;4.57;3.15;;;17.10;44.70;;;;;;4969773;28;20208;-87
2023/05/23 19:35:50;;;;;;;4.65;3.10;;;17.00;45.10;;;;;;4943607;28;20211;-86
2023/05/23 19:38:18;;;;;;;5.75;3.10;;;16.90;45.10;;;;;;4942516;28;20200;-87
2023/05/23 19:40:47;;;;;;;3.92;2.90;;;16.80;47.20;;;;;;4969151;28;20258;-89
2023/05/23 19:43:14;;;;;;;4.65;3.03;;;16.90;47.50;;;;;;4972729;28;20674;-87
2023/05/23 19:48:46;;;;;;;3.33;2.88;;;16.80;48.10;;;;;;4944746;28;20205;-87
2023/05/23 19:51:13;;;;;;;3.03;2.80;;;16.80;48.70;;;;;;4965907;28;20200;-87
2023/05/23 19:53:43;;;;;;;4.78;3.30;;;16.70;49.30;;;;;;4956191;28;20213;-88
2023/05/23 19:56:12;;;;;;;3.90;3.30;;;16.70;49.60;;;;;;4954005;28;20319;-88
2023/05/23 20:01:22;;;;;;;3.33;2.88;;;16.60;51.00;;;;;;4969377;28;20220;-87